DAL2285 KBUF-KDTW
Flight info
| Callsign | DAL2285 |
|---|---|
| Flight time | 0h 48m |
| Altitude | 32000 |
| Route | BUF DONEO TPGUN2 |
| Aircraft | A320/M-SDE3FGHIRWY/LB1 |
Departure
| Time | 2026-05-05 18:45 |
|---|---|
| Airport | Buffalo Niagara International Airport (KBUF) |
Arrival
| Time | 2026-05-05 19:34 |
|---|---|
| Airport | Detroit Metropolitan Wayne County Airport (KDTW) |
| Time | Latitude | Longitude | Altitude | Speed | Heading |
|---|---|---|---|---|---|
| 2026-05-05 18:29 | 42.93704 | -78.72960 | 713 ft | 0 kts | 179° |
| 2026-05-05 18:38 | 42.93706 | -78.72960 | 710 ft | 2 kts | 179° |
| 2026-05-05 18:39 | 42.93732 | -78.72960 | 715 ft | 4 kts | 179° |
| 2026-05-05 18:39 | 42.93757 | -78.72961 | 715 ft | 2 kts | 179° |
| 2026-05-05 18:39 | 42.93781 | -78.72958 | 713 ft | 4 kts | 204° |
| 2026-05-05 18:39 | 42.93801 | -78.72937 | 714 ft | 4 kts | 241° |
| 2026-05-05 18:40 | 42.93806 | -78.72921 | 716 ft | 1 kts | 248° |
| 2026-05-05 18:40 | 42.93807 | -78.72919 | 716 ft | 0 kts | 248° |
| 2026-05-05 18:41 | 42.93806 | -78.72924 | 716 ft | 3 kts | 255° |
| 2026-05-05 18:42 | 42.93846 | -78.72976 | 717 ft | 12 kts | 354° |
| 2026-05-05 18:42 | 42.93913 | -78.72922 | 718 ft | 16 kts | 43° |
| 2026-05-05 18:42 | 42.94031 | -78.72766 | 714 ft | 23 kts | 44° |
| 2026-05-05 18:42 | 42.94138 | -78.72626 | 718 ft | 20 kts | 44° |
| 2026-05-05 18:43 | 42.94230 | -78.72503 | 717 ft | 17 kts | 44° |
| 2026-05-05 18:43 | 42.94322 | -78.72388 | 720 ft | 24 kts | 42° |
| 2026-05-05 18:43 | 42.94466 | -78.72200 | 720 ft | 29 kts | 44° |
| 2026-05-05 18:43 | 42.94612 | -78.72007 | 717 ft | 29 kts | 45° |
| 2026-05-05 18:44 | 42.94736 | -78.71845 | 718 ft | 17 kts | 43° |
| 2026-05-05 18:44 | 42.94819 | -78.71840 | 720 ft | 12 kts | 317° |
| 2026-05-05 18:44 | 42.94799 | -78.71969 | 718 ft | 31 kts | 225° |
| 2026-05-05 18:44 | 42.94467 | -78.72406 | 721 ft | 98 kts | 224° |
| 2026-05-05 18:45 | 42.93853 | -78.73208 | 798 ft | 139 kts | 225° |
| 2026-05-05 18:45 | 42.93193 | -78.74093 | 1552 ft | 132 kts | 229° |
| 2026-05-05 18:45 | 42.92518 | -78.74981 | 2172 ft | 137 kts | 230° |
| 2026-05-05 18:45 | 42.91837 | -78.75950 | 2630 ft | 150 kts | 237° |
| 2026-05-05 18:46 | 42.91253 | -78.77217 | 2995 ft | 167 kts | 244° |
| 2026-05-05 18:46 | 42.90779 | -78.78778 | 3333 ft | 190 kts | 255° |
| 2026-05-05 18:46 | 42.90545 | -78.80622 | 3920 ft | 203 kts | 259° |
| 2026-05-05 18:46 | 42.90329 | -78.82561 | 4667 ft | 210 kts | 258° |
| 2026-05-05 18:47 | 42.90076 | -78.84554 | 5452 ft | 216 kts | 257° |
| 2026-05-05 18:47 | 42.89786 | -78.86589 | 6276 ft | 221 kts | 256° |
| 2026-05-05 18:47 | 42.89502 | -78.88667 | 7099 ft | 225 kts | 257° |
| 2026-05-05 18:47 | 42.89252 | -78.90797 | 7987 ft | 229 kts | 258° |
| 2026-05-05 18:48 | 42.89001 | -78.92962 | 8868 ft | 233 kts | 257° |
| 2026-05-05 18:48 | 42.88737 | -78.95168 | 9693 ft | 238 kts | 257° |
| 2026-05-05 18:48 | 42.88452 | -78.97419 | 10278 ft | 249 kts | 257° |
| 2026-05-05 18:48 | 42.88118 | -78.99847 | 10522 ft | 272 kts | 257° |
| 2026-05-05 18:49 | 42.87751 | -79.02496 | 10774 ft | 294 kts | 257° |
| 2026-05-05 18:49 | 42.87377 | -79.05280 | 11432 ft | 302 kts | 257° |
| 2026-05-05 18:49 | 42.87003 | -79.08122 | 12306 ft | 305 kts | 257° |
| 2026-05-05 18:49 | 42.86633 | -79.10976 | 13159 ft | 307 kts | 258° |
| 2026-05-05 18:50 | 42.86262 | -79.13849 | 13953 ft | 309 kts | 258° |
| 2026-05-05 18:50 | 42.85887 | -79.16745 | 14658 ft | 312 kts | 258° |
| 2026-05-05 18:50 | 42.85506 | -79.19673 | 15336 ft | 316 kts | 258° |
| 2026-05-05 18:50 | 42.85118 | -79.22634 | 16061 ft | 320 kts | 258° |
| 2026-05-05 18:51 | 42.84727 | -79.25605 | 16732 ft | 324 kts | 258° |
| 2026-05-05 18:51 | 42.84324 | -79.28684 | 17408 ft | 328 kts | 258° |
| 2026-05-05 18:51 | 42.83922 | -79.31760 | 18010 ft | 332 kts | 258° |
| 2026-05-05 18:51 | 42.83517 | -79.34872 | 18534 ft | 335 kts | 258° |
| 2026-05-05 18:52 | 42.83112 | -79.37963 | 19072 ft | 338 kts | 258° |
| 2026-05-05 18:52 | 42.82694 | -79.41122 | 19633 ft | 340 kts | 258° |
| 2026-05-05 18:52 | 42.82270 | -79.44302 | 20229 ft | 342 kts | 258° |
| 2026-05-05 18:52 | 42.81842 | -79.47494 | 20831 ft | 343 kts | 258° |
| 2026-05-05 18:53 | 42.81415 | -79.50702 | 21394 ft | 345 kts | 259° |
| 2026-05-05 18:53 | 42.80985 | -79.53930 | 21938 ft | 348 kts | 259° |
| 2026-05-05 18:53 | 42.80551 | -79.57179 | 22470 ft | 350 kts | 259° |
| 2026-05-05 18:53 | 42.80113 | -79.60453 | 22992 ft | 352 kts | 259° |
| 2026-05-05 18:54 | 42.79675 | -79.63743 | 23479 ft | 354 kts | 259° |
| 2026-05-05 18:54 | 42.79382 | -79.65934 | 23758 ft | 355 kts | 259° |
| 2026-05-05 18:54 | 42.78940 | -79.69250 | 24191 ft | 357 kts | 259° |
| 2026-05-05 18:54 | 42.78496 | -79.72575 | 24616 ft | 357 kts | 260° |
| 2026-05-05 18:55 | 42.78116 | -79.75922 | 25025 ft | 358 kts | 262° |
| 2026-05-05 18:55 | 42.77818 | -79.79293 | 25444 ft | 359 kts | 263° |
| 2026-05-05 18:55 | 42.77563 | -79.82683 | 25882 ft | 359 kts | 264° |
| 2026-05-05 18:55 | 42.77318 | -79.86068 | 26287 ft | 360 kts | 264° |
| 2026-05-05 18:56 | 42.77063 | -79.89454 | 26673 ft | 361 kts | 264° |
| 2026-05-05 18:56 | 42.76794 | -79.92854 | 27059 ft | 362 kts | 264° |
| 2026-05-05 18:56 | 42.76515 | -79.96262 | 27436 ft | 363 kts | 263° |
| 2026-05-05 18:56 | 42.76229 | -79.99680 | 27805 ft | 364 kts | 263° |
| 2026-05-05 18:57 | 42.75938 | -80.03108 | 28161 ft | 365 kts | 263° |
| 2026-05-05 18:57 | 42.75641 | -80.06545 | 28500 ft | 366 kts | 263° |
| 2026-05-05 18:57 | 42.75341 | -80.09993 | 28844 ft | 368 kts | 263° |
| 2026-05-05 18:57 | 42.75040 | -80.13452 | 29158 ft | 369 kts | 264° |
| 2026-05-05 18:58 | 42.74737 | -80.16920 | 29484 ft | 370 kts | 264° |
| 2026-05-05 18:58 | 42.74433 | -80.20398 | 29794 ft | 371 kts | 264° |
| 2026-05-05 18:58 | 42.74132 | -80.23890 | 30056 ft | 371 kts | 264° |
| 2026-05-05 18:58 | 42.73831 | -80.27379 | 30307 ft | 372 kts | 263° |
| 2026-05-05 18:59 | 42.73525 | -80.30870 | 30549 ft | 372 kts | 263° |
| 2026-05-05 18:59 | 42.73221 | -80.34350 | 30878 ft | 369 kts | 263° |
| 2026-05-05 18:59 | 42.72924 | -80.37806 | 31227 ft | 367 kts | 264° |
| 2026-05-05 18:59 | 42.72702 | -80.41248 | 31581 ft | 364 kts | 265° |
| 2026-05-05 19:00 | 42.72550 | -80.44676 | 31768 ft | 362 kts | 266° |
| 2026-05-05 19:00 | 42.72432 | -80.48050 | 31798 ft | 354 kts | 266° |
| 2026-05-05 19:00 | 42.72209 | -80.54632 | 31813 ft | 349 kts | 265° |
| 2026-05-05 19:01 | 42.71946 | -80.61211 | 31797 ft | 348 kts | 265° |
| 2026-05-05 19:01 | 42.71654 | -80.67780 | 31798 ft | 348 kts | 265° |
| 2026-05-05 19:02 | 42.71356 | -80.74348 | 31796 ft | 348 kts | 265° |
| 2026-05-05 19:02 | 42.71059 | -80.80915 | 31800 ft | 348 kts | 265° |
| 2026-05-05 19:03 | 42.70762 | -80.87480 | 31799 ft | 348 kts | 265° |
| 2026-05-05 19:03 | 42.70463 | -80.94044 | 31809 ft | 348 kts | 265° |
| 2026-05-05 19:04 | 42.70149 | -81.00624 | 31688 ft | 350 kts | 264° |
| 2026-05-05 19:04 | 42.69990 | -81.03928 | 31432 ft | 350 kts | 265° |
| 2026-05-05 19:04 | 42.69832 | -81.07232 | 31182 ft | 351 kts | 265° |
| 2026-05-05 19:05 | 42.69675 | -81.10553 | 30933 ft | 352 kts | 265° |
| 2026-05-05 19:05 | 42.69518 | -81.13875 | 30685 ft | 352 kts | 265° |
| 2026-05-05 19:05 | 42.69358 | -81.17187 | 30440 ft | 352 kts | 265° |
| 2026-05-05 19:05 | 42.69194 | -81.20462 | 30199 ft | 351 kts | 265° |
| 2026-05-05 19:06 | 42.69028 | -81.23759 | 29963 ft | 348 kts | 265° |
| 2026-05-05 19:06 | 42.68865 | -81.27038 | 29679 ft | 347 kts | 265° |
| 2026-05-05 19:06 | 42.68700 | -81.30317 | 29386 ft | 347 kts | 265° |
| 2026-05-05 19:06 | 42.68535 | -81.33580 | 29105 ft | 344 kts | 264° |
| 2026-05-05 19:07 | 42.68350 | -81.36813 | 28835 ft | 342 kts | 263° |
| 2026-05-05 19:07 | 42.68104 | -81.40023 | 28556 ft | 341 kts | 262° |
| 2026-05-05 19:07 | 42.67825 | -81.43202 | 28070 ft | 337 kts | 262° |
| 2026-05-05 19:07 | 42.67536 | -81.46339 | 27508 ft | 333 kts | 262° |
| 2026-05-05 19:08 | 42.67251 | -81.49440 | 26956 ft | 329 kts | 262° |
| 2026-05-05 19:08 | 42.66973 | -81.52520 | 26413 ft | 326 kts | 262° |
| 2026-05-05 19:08 | 42.66705 | -81.55564 | 25878 ft | 324 kts | 262° |
| 2026-05-05 19:08 | 42.66441 | -81.58604 | 25348 ft | 322 kts | 262° |
| 2026-05-05 19:09 | 42.66183 | -81.61617 | 24832 ft | 320 kts | 261° |
| 2026-05-05 19:09 | 42.65927 | -81.64615 | 24322 ft | 319 kts | 261° |
| 2026-05-05 19:09 | 42.65669 | -81.67605 | 23851 ft | 318 kts | 261° |
| 2026-05-05 19:09 | 42.65410 | -81.70589 | 23351 ft | 318 kts | 261° |
| 2026-05-05 19:10 | 42.65149 | -81.73558 | 22839 ft | 315 kts | 261° |
| 2026-05-05 19:10 | 42.64894 | -81.76457 | 22386 ft | 312 kts | 261° |
| 2026-05-05 19:10 | 42.64638 | -81.79363 | 21939 ft | 308 kts | 261° |
| 2026-05-05 19:10 | 42.64385 | -81.82243 | 21500 ft | 305 kts | 261° |
| 2026-05-05 19:11 | 42.64135 | -81.85097 | 21058 ft | 302 kts | 261° |
| 2026-05-05 19:11 | 42.63884 | -81.87917 | 20621 ft | 299 kts | 261° |
| 2026-05-05 19:11 | 42.63635 | -81.90719 | 20181 ft | 297 kts | 261° |
| 2026-05-05 19:11 | 42.63390 | -81.93497 | 19735 ft | 296 kts | 261° |
| 2026-05-05 19:12 | 42.63143 | -81.96266 | 19298 ft | 296 kts | 261° |
| 2026-05-05 19:12 | 42.62892 | -81.99049 | 18834 ft | 296 kts | 261° |
| 2026-05-05 19:12 | 42.62639 | -82.01826 | 18382 ft | 297 kts | 261° |
| 2026-05-05 19:12 | 42.62385 | -82.04626 | 17894 ft | 300 kts | 261° |
| 2026-05-05 19:13 | 42.62132 | -82.07441 | 17398 ft | 301 kts | 261° |
| 2026-05-05 19:13 | 42.61882 | -82.10241 | 17050 ft | 296 kts | 261° |
| 2026-05-05 19:13 | 42.61634 | -82.13002 | 16619 ft | 294 kts | 260° |
| 2026-05-05 19:13 | 42.61389 | -82.15714 | 16176 ft | 292 kts | 260° |
| 2026-05-05 19:14 | 42.61141 | -82.18451 | 15729 ft | 291 kts | 260° |
| 2026-05-05 19:14 | 42.60891 | -82.21170 | 15285 ft | 290 kts | 260° |
| 2026-05-05 19:14 | 42.60640 | -82.23880 | 14843 ft | 289 kts | 260° |
| 2026-05-05 19:14 | 42.60390 | -82.26581 | 14401 ft | 288 kts | 260° |
| 2026-05-05 19:15 | 42.60143 | -82.29279 | 13962 ft | 289 kts | 260° |
| 2026-05-05 19:15 | 42.59889 | -82.32001 | 13494 ft | 292 kts | 260° |
| 2026-05-05 19:15 | 42.59631 | -82.34751 | 13067 ft | 293 kts | 260° |
| 2026-05-05 19:15 | 42.59376 | -82.37481 | 12606 ft | 290 kts | 259° |
| 2026-05-05 19:16 | 42.59130 | -82.40148 | 12089 ft | 278 kts | 259° |
| 2026-05-05 19:16 | 42.58733 | -82.42696 | 11638 ft | 275 kts | 250° |
| 2026-05-05 19:16 | 42.58021 | -82.45091 | 11186 ft | 273 kts | 246° |
| 2026-05-05 19:16 | 42.57285 | -82.47464 | 10749 ft | 271 kts | 246° |
| 2026-05-05 19:17 | 42.56575 | -82.49756 | 10594 ft | 253 kts | 246° |
| 2026-05-05 19:17 | 42.55921 | -82.51874 | 10158 ft | 242 kts | 246° |
| 2026-05-05 19:17 | 42.55289 | -82.53917 | 9817 ft | 229 kts | 246° |
| 2026-05-05 19:17 | 42.54679 | -82.55884 | 9673 ft | 228 kts | 246° |
| 2026-05-05 19:18 | 42.54066 | -82.57861 | 9537 ft | 227 kts | 246° |
| 2026-05-05 19:18 | 42.53456 | -82.59832 | 9404 ft | 226 kts | 246° |
| 2026-05-05 19:18 | 42.52848 | -82.61797 | 9271 ft | 226 kts | 246° |
| 2026-05-05 19:18 | 42.52238 | -82.63760 | 9133 ft | 226 kts | 246° |
| 2026-05-05 19:19 | 42.51627 | -82.65726 | 8858 ft | 225 kts | 246° |
| 2026-05-05 19:19 | 42.51021 | -82.67673 | 8542 ft | 224 kts | 246° |
| 2026-05-05 19:19 | 42.50412 | -82.69608 | 8206 ft | 223 kts | 246° |
| 2026-05-05 19:19 | 42.49798 | -82.71533 | 7873 ft | 222 kts | 246° |
| 2026-05-05 19:20 | 42.49186 | -82.73451 | 7544 ft | 221 kts | 246° |
| 2026-05-05 19:20 | 42.48672 | -82.75361 | 7316 ft | 208 kts | 256° |
| 2026-05-05 19:20 | 42.48574 | -82.77214 | 7135 ft | 195 kts | 270° |
| 2026-05-05 19:20 | 42.48874 | -82.78994 | 6976 ft | 198 kts | 284° |
| 2026-05-05 19:21 | 42.49515 | -82.80679 | 6950 ft | 202 kts | 290° |
| 2026-05-05 19:21 | 42.50193 | -82.82347 | 6952 ft | 202 kts | 290° |
| 2026-05-05 19:21 | 42.50868 | -82.84023 | 6952 ft | 202 kts | 290° |
| 2026-05-05 19:21 | 42.51541 | -82.85697 | 6952 ft | 202 kts | 290° |
| 2026-05-05 19:22 | 42.52212 | -82.87373 | 6953 ft | 202 kts | 290° |
| 2026-05-05 19:22 | 42.52884 | -82.89048 | 6951 ft | 202 kts | 290° |
| 2026-05-05 19:22 | 42.53556 | -82.90718 | 6951 ft | 202 kts | 290° |
| 2026-05-05 19:22 | 42.54232 | -82.92397 | 6952 ft | 202 kts | 290° |
| 2026-05-05 19:23 | 42.54905 | -82.94074 | 6922 ft | 203 kts | 290° |
| 2026-05-05 19:23 | 42.55583 | -82.95771 | 6581 ft | 205 kts | 290° |
| 2026-05-05 19:23 | 42.56260 | -82.97459 | 6303 ft | 203 kts | 290° |
| 2026-05-05 19:23 | 42.56931 | -82.99131 | 6007 ft | 201 kts | 290° |
| 2026-05-05 19:24 | 42.57391 | -83.00869 | 5772 ft | 193 kts | 274° |
| 2026-05-05 19:24 | 42.57406 | -83.02651 | 5512 ft | 191 kts | 264° |
| 2026-05-05 19:24 | 42.57327 | -83.04460 | 5247 ft | 193 kts | 263° |
| 2026-05-05 19:24 | 42.56964 | -83.06208 | 5031 ft | 195 kts | 243° |
| 2026-05-05 19:25 | 42.56075 | -83.07627 | 4996 ft | 202 kts | 223° |
| 2026-05-05 19:25 | 42.54968 | -83.08809 | 4998 ft | 203 kts | 223° |
| 2026-05-05 19:25 | 42.53765 | -83.09838 | 4999 ft | 205 kts | 214° |
| 2026-05-05 19:25 | 42.52554 | -83.10729 | 4990 ft | 191 kts | 214° |
| 2026-05-05 19:26 | 42.51432 | -83.11553 | 5023 ft | 177 kts | 215° |
| 2026-05-05 19:26 | 42.50368 | -83.12346 | 5004 ft | 173 kts | 215° |
| 2026-05-05 19:26 | 42.49319 | -83.13131 | 4993 ft | 172 kts | 215° |
| 2026-05-05 19:26 | 42.48270 | -83.13915 | 4995 ft | 173 kts | 216° |
| 2026-05-05 19:27 | 42.47218 | -83.14698 | 4995 ft | 172 kts | 216° |
| 2026-05-05 19:27 | 42.46168 | -83.15480 | 4997 ft | 172 kts | 215° |
| 2026-05-05 19:27 | 42.45114 | -83.16264 | 4995 ft | 174 kts | 215° |
| 2026-05-05 19:27 | 42.44045 | -83.17059 | 4996 ft | 176 kts | 215° |
| 2026-05-05 19:28 | 42.42973 | -83.17856 | 4998 ft | 175 kts | 215° |
| 2026-05-05 19:28 | 42.41905 | -83.18650 | 4995 ft | 176 kts | 215° |
| 2026-05-05 19:28 | 42.40825 | -83.19452 | 4881 ft | 177 kts | 215° |
| 2026-05-05 19:28 | 42.39749 | -83.20250 | 4692 ft | 176 kts | 215° |
| 2026-05-05 19:29 | 42.38674 | -83.21048 | 4457 ft | 177 kts | 215° |
| 2026-05-05 19:29 | 42.37591 | -83.21852 | 4218 ft | 178 kts | 214° |
| 2026-05-05 19:29 | 42.36498 | -83.22662 | 3972 ft | 179 kts | 214° |
| 2026-05-05 19:29 | 42.35403 | -83.23473 | 3729 ft | 180 kts | 214° |
| 2026-05-05 19:30 | 42.34305 | -83.24287 | 3493 ft | 180 kts | 213° |
| 2026-05-05 19:30 | 42.33204 | -83.25102 | 3249 ft | 181 kts | 213° |
| 2026-05-05 19:30 | 42.32111 | -83.25911 | 3004 ft | 175 kts | 213° |
| 2026-05-05 19:30 | 42.31075 | -83.26676 | 2773 ft | 164 kts | 213° |
| 2026-05-05 19:31 | 42.30120 | -83.27380 | 2573 ft | 150 kts | 213° |
| 2026-05-05 19:31 | 42.29236 | -83.28035 | 2376 ft | 144 kts | 213° |
| 2026-05-05 19:31 | 42.28364 | -83.28681 | 2178 ft | 141 kts | 213° |
| 2026-05-05 19:31 | 42.27505 | -83.29316 | 1983 ft | 142 kts | 214° |
| 2026-05-05 19:32 | 42.26640 | -83.29956 | 1794 ft | 141 kts | 214° |
| 2026-05-05 19:32 | 42.25780 | -83.30591 | 1587 ft | 140 kts | 213° |
| 2026-05-05 19:32 | 42.24931 | -83.31218 | 1380 ft | 137 kts | 214° |
| 2026-05-05 19:32 | 42.24094 | -83.31836 | 1175 ft | 137 kts | 213° |
| 2026-05-05 19:33 | 42.23264 | -83.32448 | 996 ft | 136 kts | 212° |
| 2026-05-05 19:33 | 42.22436 | -83.33060 | 796 ft | 135 kts | 213° |
| 2026-05-05 19:33 | 42.21625 | -83.33656 | 649 ft | 130 kts | 214° |
| 2026-05-05 19:33 | 42.20981 | -83.34150 | 648 ft | 70 kts | 208° |
| 2026-05-05 19:34 | 42.20727 | -83.34334 | 645 ft | 32 kts | 211° |
| 2026-05-05 19:34 | 42.20608 | -83.34493 | 649 ft | 16 kts | 234° |
| 2026-05-05 19:34 | 42.20587 | -83.34619 | 650 ft | 14 kts | 306° |
| 2026-05-05 19:35 | 42.20773 | -83.34541 | 647 ft | 21 kts | 28° |
| 2026-05-05 19:35 | 42.20906 | -83.34440 | 647 ft | 19 kts | 27° |
| 2026-05-05 19:35 | 42.20997 | -83.34389 | 647 ft | 11 kts | 2° |
| 2026-05-05 19:35 | 42.21065 | -83.34491 | 648 ft | 19 kts | 300° |
| 2026-05-05 19:36 | 42.21128 | -83.34648 | 647 ft | 19 kts | 299° |
| 2026-05-05 19:36 | 42.21198 | -83.34813 | 643 ft | 21 kts | 300° |
| 2026-05-05 19:36 | 42.21256 | -83.34923 | 645 ft | 12 kts | 337° |
| 2026-05-05 19:36 | 42.21340 | -83.34953 | 648 ft | 15 kts | 334° |
| 2026-05-05 19:37 | 42.21427 | -83.35027 | 646 ft | 16 kts | 326° |
| 2026-05-05 19:37 | 42.21497 | -83.35092 | 646 ft | 10 kts | 303° |
| 2026-05-05 19:37 | 42.21466 | -83.35160 | 646 ft | 10 kts | 208° |
| 2026-05-05 19:37 | 42.21377 | -83.35216 | 646 ft | 16 kts | 205° |
| 2026-05-05 19:38 | 42.21314 | -83.35266 | 646 ft | 8 kts | 243° |
| 2026-05-05 19:38 | 42.21328 | -83.35337 | 647 ft | 9 kts | 297° |
| 2026-05-05 19:38 | 42.21337 | -83.35359 | 646 ft | 0 kts | 297° |